Daufuskie Island, South Carolina
Current Conditions -  °F | °C
As of 1:50 PM on Sunday 23 Nov 2014 (Local Time) from KHXD Reporting Station
Light Rain Light Rain  
Wind Chill: 64°   Ceiling: 200
Heat Index: 64°   Visibility: 2mi
Dew Point: 64°   Wind: 6mph
Humidity: 100%   Direction: 120°ESE
Pressure: 29.93"   Gusts: NA
Location:  32.1°N, 80.89°W
Report Text: KHXD 231850Z 12005KT 2SM -RA OVC002 18/18 A2993
Loading
Personal Weather Stations






























Interactive Weather Map New forecast layout! Learn more

10-Day Weather Forecast

Advertisements
Track Severe Weather on mobile